createdAt,value
2023-02-12T00:01:11.949Z,10.40
2023-02-12T00:06:15.891Z,8.90
2023-02-12T00:16:25.475Z,11.10
2023-02-12T00:21:27.640Z,6.90
2023-02-12T00:26:29.494Z,11.40
2023-02-12T00:31:32.482Z,12.30
2023-02-12T00:36:34.613Z,10.50
2023-02-12T00:41:36.322Z,10.50
2023-02-12T00:46:38.275Z,9.50
2023-02-12T00:51:40.458Z,10.60
2023-02-12T00:56:44.118Z,12.20
2023-02-12T01:01:46.178Z,12.20
2023-02-12T01:06:48.208Z,7.80
2023-02-12T01:11:52.134Z,15.50
2023-02-12T01:16:53.849Z,13.90
2023-02-12T01:21:55.605Z,9.10
2023-02-12T01:26:57.344Z,14.40
2023-02-12T01:31:59.190Z,12.50
2023-02-12T01:37:01.799Z,11.00
2023-02-12T01:42:05.164Z,14.70
2023-02-12T01:47:06.891Z,12.80
2023-02-12T01:52:13.177Z,15.70
2023-02-12T01:57:16.611Z,13.60
2023-02-12T02:02:18.701Z,15.20
2023-02-12T02:07:20.558Z,13.70
2023-02-12T02:12:41.422Z,10.10
2023-02-12T02:18:02.139Z,9.70
2023-02-12T02:23:21.017Z,9.10
2023-02-12T02:28:25.672Z,16.30
2023-02-12T02:33:39.599Z,10.40
2023-02-12T02:38:57.306Z,15.80
2023-02-12T02:44:02.440Z,15.20
2023-02-12T02:49:10.727Z,10.70
2023-02-12T02:54:42.466Z,14.30
2023-02-12T02:59:50.345Z,14.70
2023-02-12T03:05:03.232Z,12.40
2023-02-12T03:10:13.832Z,13.90
2023-02-12T03:15:24.338Z,10.20
2023-02-12T03:20:33.581Z,13.30
2023-02-12T03:25:40.512Z,16.20
2023-02-12T03:30:58.327Z,14.70
2023-02-12T03:36:07.274Z,13.00
2023-02-12T03:41:18.981Z,21.40
2023-02-12T03:46:47.175Z,22.20
2023-02-12T03:51:51.890Z,16.40
2023-02-12T03:57:04.072Z,19.40
2023-02-12T04:02:06.976Z,16.10
2023-02-12T04:07:08.920Z,13.50
2023-02-12T04:12:25.708Z,14.60
2023-02-12T04:17:44.366Z,21.60
2023-02-12T04:22:54.070Z,26.50
2023-02-12T04:28:13.709Z,38.40
2023-02-12T04:33:20.957Z,21.00
2023-02-12T04:38:24.618Z,20.40
2023-02-12T04:43:28.685Z,18.20
2023-02-12T04:48:30.388Z,17.70
2023-02-12T04:53:32.103Z,13.50
2023-02-12T04:58:33.821Z,18.70
2023-02-12T05:03:36.136Z,18.70
2023-02-12T05:08:37.772Z,18.20
2023-02-12T05:13:39.964Z,19.10
2023-02-12T05:18:41.651Z,17.50
2023-02-12T05:23:43.417Z,17.60
2023-02-12T05:28:45.586Z,20.70
2023-02-12T05:33:48.653Z,17.80
2023-02-12T05:38:51.801Z,24.80
2023-02-12T05:43:53.955Z,31.10
2023-02-12T05:48:55.645Z,25.20
2023-02-12T05:54:00.334Z,20.30
2023-02-12T05:59:08.156Z,16.30
2023-02-12T06:04:19.228Z,23.70
2023-02-12T06:09:21.442Z,21.10
2023-02-12T06:14:23.426Z,18.70
2023-02-12T06:19:25.176Z,21.30
2023-02-12T06:24:28.822Z,23.20
2023-02-12T06:29:30.807Z,15.60
2023-02-12T06:34:32.435Z,22.30
2023-02-12T06:39:34.025Z,32.50
2023-02-12T06:44:35.750Z,24.00
2023-02-12T06:49:37.386Z,21.10
2023-02-12T06:54:39.111Z,26.60
2023-02-12T06:59:40.829Z,32.90
2023-02-12T07:04:42.693Z,21.00
2023-02-12T07:09:44.375Z,21.90
2023-02-12T07:14:46.072Z,16.30
2023-02-12T07:19:47.765Z,18.10
2023-02-12T07:24:49.633Z,16.30
2023-02-12T07:29:53.110Z,12.80
2023-02-12T07:34:54.720Z,16.00
2023-02-12T07:39:56.747Z,13.90
2023-02-12T07:44:58.448Z,12.50
2023-02-12T07:50:04.409Z,8.70
2023-02-12T07:55:06.571Z,8.20
2023-02-12T08:00:11.323Z,9.40
2023-02-12T08:05:17.954Z,8.20
2023-02-12T08:10:23.820Z,7.40
2023-02-12T08:15:26.687Z,9.50
2023-02-12T08:20:36.402Z,5.70
2023-02-12T08:25:40.794Z,6.20
2023-02-12T08:30:45.492Z,7.90
2023-02-12T08:36:21.310Z,9.60
2023-02-12T08:41:38.791Z,10.90
2023-02-12T08:46:48.158Z,8.40
2023-02-12T08:51:53.995Z,5.70
2023-02-12T08:57:00.436Z,7.10
2023-02-12T09:02:04.810Z,6.80
2023-02-12T09:07:11.729Z,8.70
2023-02-12T09:12:23.679Z,8.10
2023-02-12T09:17:27.404Z,7.50
2023-02-12T09:22:29.000Z,7.50
2023-02-12T09:27:31.438Z,4.80
2023-02-12T09:32:33.120Z,8.40
2023-02-12T09:37:34.791Z,7.20
2023-02-12T09:43:01.898Z,5.30
2023-02-12T09:48:28.218Z,3.80
2023-02-12T09:53:31.380Z,3.50
2023-02-12T09:58:38.411Z,3.00
2023-02-12T10:03:40.500Z,5.40
2023-02-12T10:09:09.683Z,5.20
2023-02-12T10:14:20.482Z,7.20
2023-02-12T10:19:50.069Z,9.20
2023-02-12T10:25:17.957Z,31.60
2023-02-12T10:30:42.744Z,8.50
2023-02-12T10:35:50.794Z,13.50
2023-02-12T10:40:54.805Z,6.30
2023-02-12T10:45:57.215Z,5.50
2023-02-12T10:51:08.244Z,4.60
2023-02-12T10:56:12.819Z,7.90
2023-02-12T11:01:30.500Z,8.40
2023-02-12T11:06:32.432Z,4.60
2023-02-12T11:11:38.749Z,6.20
2023-02-12T11:16:55.267Z,8.40
2023-02-12T11:22:18.577Z,8.00
2023-02-12T11:27:24.187Z,4.90
2023-02-12T11:32:27.292Z,4.90
2023-02-12T11:37:29.057Z,7.20
2023-02-12T11:42:35.282Z,5.40
2023-02-12T11:47:40.769Z,3.60
2023-02-12T11:52:42.839Z,10.70
2023-02-12T11:57:51.046Z,4.40
2023-02-12T12:02:55.472Z,7.70
2023-02-12T12:08:03.813Z,9.40
2023-02-12T12:13:14.700Z,6.80
2023-02-12T12:18:47.817Z,4.00
2023-02-12T12:23:59.850Z,4.50
2023-02-12T12:29:10.720Z,4.90
2023-02-12T12:34:24.478Z,5.40
2023-02-12T12:39:48.804Z,4.10
2023-02-12T12:45:05.202Z,6.00
2023-02-12T12:50:14.745Z,6.00
2023-02-12T12:55:35.912Z,6.00
2023-02-12T13:00:56.449Z,8.40
2023-02-12T13:06:16.976Z,7.10
2023-02-12T13:11:46.290Z,6.70
2023-02-12T13:22:30.841Z,6.10
2023-02-12T13:27:40.443Z,7.00
2023-02-12T13:32:46.583Z,7.50
2023-02-12T13:37:59.050Z,6.20
2023-02-12T13:43:55.584Z,10.90
2023-02-12T13:49:12.404Z,8.30
2023-02-12T13:54:35.528Z,3.60
2023-02-12T14:04:59.804Z,7.20
2023-02-12T14:10:05.188Z,4.60
2023-02-12T14:15:11.248Z,9.00
2023-02-12T14:20:28.415Z,12.60
2023-02-12T14:25:43.582Z,9.20
2023-02-12T14:30:45.591Z,16.50
2023-02-12T14:36:09.108Z,12.70
2023-02-12T14:41:38.631Z,10.60
2023-02-12T14:46:46.697Z,10.70
2023-02-12T14:52:06.955Z,9.90
2023-02-12T14:57:22.650Z,11.40
2023-02-12T15:02:27.957Z,9.90
2023-02-12T15:07:36.942Z,6.90
2023-02-12T15:13:06.552Z,11.20
2023-02-12T15:23:38.538Z,10.20
2023-02-12T15:28:41.232Z,10.10
2023-02-12T15:33:47.928Z,11.40
2023-02-12T15:38:54.447Z,13.00
2023-02-12T15:43:57.015Z,10.00
2023-02-12T15:48:59.549Z,13.70
2023-02-12T15:54:05.894Z,12.80
2023-02-12T15:59:28.886Z,10.90
2023-02-12T16:04:34.114Z,11.10
2023-02-12T16:09:36.640Z,16.70
2023-02-12T16:14:46.465Z,28.50
2023-02-12T16:19:56.506Z,25.30
2023-02-12T16:24:58.740Z,19.80
2023-02-12T16:30:03.961Z,16.60
2023-02-12T16:35:12.063Z,14.80
2023-02-12T16:40:16.425Z,13.70
2023-02-12T16:45:27.436Z,12.80
2023-02-12T16:50:34.113Z,13.30
2023-02-12T16:55:36.779Z,16.90
2023-02-12T17:00:39.132Z,15.80
2023-02-12T17:05:44.900Z,15.30
2023-02-12T17:10:48.271Z,14.40
2023-02-12T17:15:55.437Z,14.70
2023-02-12T17:21:04.949Z,14.20
2023-02-12T17:26:07.743Z,19.80
2023-02-12T17:31:09.730Z,15.80
2023-02-12T17:36:12.328Z,13.90
2023-02-12T17:41:14.093Z,19.20
2023-02-12T17:46:22.872Z,16.90
2023-02-12T17:51:25.476Z,14.90
2023-02-12T17:56:27.460Z,21.40
2023-02-12T18:01:29.409Z,26.00
2023-02-12T18:06:31.828Z,19.60
2023-02-12T18:11:34.010Z,16.90
2023-02-12T18:16:35.748Z,20.20
2023-02-12T18:21:40.819Z,25.70
2023-02-12T18:26:42.573Z,26.50
2023-02-12T18:31:45.750Z,27.30
2023-02-12T18:36:47.533Z,45.00
2023-02-12T18:41:49.302Z,45.50
2023-02-12T18:46:51.499Z,45.30
2023-02-12T18:51:53.555Z,42.30
2023-02-12T18:56:56.254Z,59.20
2023-02-12T19:01:58.220Z,43.40
2023-02-12T19:07:00.206Z,38.00
2023-02-12T19:12:03.298Z,40.80
2023-02-12T19:17:05.098Z,75.30
2023-02-12T19:22:06.770Z,66.30
2023-02-12T19:27:09.832Z,121.40
2023-02-12T19:32:11.522Z,91.90
2023-02-12T19:37:13.824Z,66.00
2023-02-12T19:42:17.261Z,80.70
2023-02-12T19:47:18.886Z,90.80
2023-02-12T19:52:20.552Z,83.70
2023-02-12T19:57:22.365Z,86.90
2023-02-12T20:02:25.194Z,146.40
2023-02-12T20:07:26.842Z,116.70
2023-02-12T20:12:28.719Z,102.20
2023-02-12T20:17:30.484Z,119.20
2023-02-12T20:22:32.248Z,122.00
2023-02-12T20:27:34.098Z,134.70
2023-02-12T20:32:35.953Z,199.20
2023-02-12T20:37:37.811Z,137.20
2023-02-12T20:42:39.560Z,137.60
2023-02-12T20:47:42.856Z,157.10
2023-02-12T20:52:44.578Z,166.80
2023-02-12T20:57:46.450Z,198.80
2023-02-12T21:02:48.116Z,197.90
2023-02-12T21:07:50.481Z,166.00
2023-02-12T21:12:52.247Z,174.90
2023-02-12T21:17:53.908Z,166.90
2023-02-12T21:22:55.606Z,156.30
2023-02-12T21:27:57.265Z,227.10
2023-02-12T21:32:59.365Z,116.80
2023-02-12T21:38:01.003Z,113.40
2023-02-12T21:43:02.783Z,125.60
2023-02-12T21:48:04.629Z,128.30
2023-02-12T21:53:06.307Z,102.60
2023-02-12T21:58:08.388Z,140.60
2023-02-12T22:03:10.014Z,113.60
2023-02-12T22:08:11.976Z,117.90
2023-02-12T22:13:18.970Z,117.40
2023-02-12T22:18:20.692Z,114.00
2023-02-12T22:23:22.513Z,105.20
2023-02-12T22:28:24.490Z,140.50
2023-02-12T22:33:26.282Z,105.60
2023-02-12T22:38:27.953Z,113.70
2023-02-12T22:43:31.082Z,115.50
2023-02-12T22:48:32.788Z,97.50
2023-02-12T22:53:34.738Z,121.30
2023-02-12T22:58:38.613Z,96.40
2023-02-12T23:03:41.487Z,92.70
2023-02-12T23:08:44.258Z,76.60
2023-02-12T23:13:46.583Z,80.10
2023-02-12T23:18:48.836Z,95.10
2023-02-12T23:23:50.607Z,80.60
2023-02-12T23:28:52.224Z,72.70
2023-02-12T23:33:53.900Z,72.80
2023-02-12T23:38:59.222Z,72.80
2023-02-12T23:44:00.858Z,80.80
2023-02-12T23:49:02.803Z,76.20
2023-02-12T23:54:04.546Z,79.60
2023-02-12T23:59:06.449Z,70.70
